»·PEaware :: N365EA KSAN-KSBA

N365EA :: KSAN-KSBA

FLIGHT INFORMATION

Flight Status: Arrived
Operator: Privately registered:
United States
More flights under this callsign
Pilot: Anonymous 24416 (24416)
Aircraft: CESSNA 550 CITATION 2/S2/BRAVO
(C550)
More flights by this aircraft type
Origin: KSAN San Diego Intl-Lindbergh
United States
Destination: KSBA Santa Barbara Mun
United States
More flights between these airports :: More routes between these airports
Route: +
File this flight plan on PilotEdge
Remarks:
Altitude:
(Current/Filed)
0ft
Speed:
(Current/Filed)
0kts
Departed: 31-Dec-19 07:52 PM
Arrived: 31-Dec-19 08:45 PM
Distance/Time
Traveled:
167nm/0:53
Distance/Time
To Go:
Arrived

Flight Plot

Page will automatically refresh every two minutes.

Flight plan parsing failed; only flown route is shown


Map Options




Map Legend


Flown Route
Filed Route
Departure Airport
Arrival Airport
Navaid (VOR, NDB)
Fix

Horizontal Profiles

Position Reports

Time Latitude Longitude Heading Altitude Ground
Speed
31-Dec-19 19:38 32.732420 -117.176641 193 23ft 0kts
31-Dec-19 19:39 32.732420 -117.176641 193 23ft 0kts
31-Dec-19 19:40 32.732420 -117.176641 193 23ft 0kts
31-Dec-19 19:41 32.732420 -117.176641 193 23ft 0kts
31-Dec-19 19:42 32.732420 -117.176641 193 23ft 0kts
31-Dec-19 19:43 32.732420 -117.176641 193 23ft 0kts
31-Dec-19 19:44 32.732292 -117.176679 193 22ft 4kts
31-Dec-19 19:45 32.731164 -117.175875 109 22ft 5kts
31-Dec-19 19:46 32.730993 -117.175569 133 22ft 0kts
31-Dec-19 19:47 32.730993 -117.175569 133 22ft 0kts
31-Dec-19 19:48 32.730993 -117.175569 133 22ft 0kts
31-Dec-19 19:49 32.730993 -117.175569 133 22ft 0kts
31-Dec-19 19:50 32.730465 -117.175211 162 22ft 8kts
31-Dec-19 19:51 32.730807 -117.178382 287 19ft 59kts
31-Dec-19 19:52 32.741815 -117.212951 299 735ft 146kts
31-Dec-19 19:53 32.763026 -117.258233 301 1698ft 167kts
31-Dec-19 19:54 32.785883 -117.306690 301 2465ft 172kts
31-Dec-19 19:55 32.815048 -117.351026 341 3247ft 186kts
31-Dec-19 19:56 32.865451 -117.368911 343 4035ft 184kts
31-Dec-19 19:57 32.916250 -117.387895 345 5226ft 193kts
31-Dec-19 19:58 32.961618 -117.411967 326 6412ft 175kts
31-Dec-19 19:59 33.001394 -117.452009 321 7541ft 213kts
31-Dec-19 20:00 33.045881 -117.498182 321 8527ft 212kts
31-Dec-19 20:01 33.091601 -117.545660 320 9516ft 221kts
31-Dec-19 20:02 33.139006 -117.595163 319 10519ft 240kts
31-Dec-19 20:03 33.192045 -117.650572 319 11525ft 263kts
31-Dec-19 20:04 33.248330 -117.709366 319 12461ft 269kts
31-Dec-19 20:05 33.303140 -117.766616 319 12489ft 258kts
31-Dec-19 20:06 33.356634 -117.822628 319 12486ft 254kts
31-Dec-19 20:07 33.409542 -117.878131 319 12483ft 252kts
31-Dec-19 20:08 33.462144 -117.933411 319 12480ft 251kts
31-Dec-19 20:09 33.515170 -117.989240 319 12482ft 266kts
31-Dec-19 20:10 33.573449 -118.050748 319 12480ft 288kts
31-Dec-19 20:11 33.634639 -118.114839 319 12482ft 296kts
31-Dec-19 20:12 33.696805 -118.180604 319 12484ft 299kts
31-Dec-19 20:13 33.759416 -118.247017 319 12487ft 300kts
31-Dec-19 20:14 33.821309 -118.312804 319 12488ft 291kts
31-Dec-19 20:15 33.881181 -118.376565 319 12488ft 284kts
31-Dec-19 20:16 33.935055 -118.444628 297 12487ft 283kts
31-Dec-19 20:17 33.965140 -118.532291 293 12483ft 283kts
31-Dec-19 20:18 33.993511 -118.621264 293 12486ft 283kts
31-Dec-19 20:19 34.021276 -118.708701 292 12500ft 283kts
31-Dec-19 20:20 34.069119 -118.773253 338 12365ft 254kts
31-Dec-19 20:21 34.136391 -118.800193 342 11360ft 255kts
31-Dec-19 20:22 34.204163 -118.825154 342 10366ft 254kts
31-Dec-19 20:23 34.271732 -118.849990 342 9369ft 251kts
31-Dec-19 20:24 34.335256 -118.873371 342 8367ft 230kts
31-Dec-19 20:25 34.365304 -118.936172 286 7447ft 223kts
31-Dec-19 20:26 34.378670 -119.007368 284 6801ft 211kts
31-Dec-19 20:27 34.390736 -119.076011 284 6202ft 206kts
31-Dec-19 20:28 34.402517 -119.143613 284 5600ft 203kts
31-Dec-19 20:29 34.414113 -119.210564 283 4999ft 202kts
31-Dec-19 20:30 34.425082 -119.277287 272 4393ft 203kts
31-Dec-19 20:31 34.422639 -119.345490 271 3792ft 202kts
31-Dec-19 20:32 34.423168 -119.411103 272 3655ft 185kts
31-Dec-19 20:33 34.425366 -119.465918 275 3682ft 145kts
31-Dec-19 20:34 34.427483 -119.510793 275 3776ft 119kts
31-Dec-19 20:35 34.429160 -119.549443 275 3687ft 111kts
31-Dec-19 20:36 34.430763 -119.586480 275 3670ft 109kts
31-Dec-19 20:37 34.431611 -119.624461 272 3507ft 114kts
31-Dec-19 20:38 34.430966 -119.664537 269 3121ft 124kts
31-Dec-19 20:39 34.430210 -119.704170 269 2555ft 103kts
31-Dec-19 20:40 34.430102 -119.739720 271 1846ft 106kts
31-Dec-19 20:41 34.429421 -119.774835 267 1213ft 97kts
31-Dec-19 20:42 34.428568 -119.810670 268 493ft 106kts
31-Dec-19 20:43 34.427680 -119.843231 269 15ft 61kts
31-Dec-19 20:45 34.428639 -119.845092 63 15ft 5kts
31-Dec-19 20:46 34.429386 -119.843180 63 15ft 6kts
31-Dec-19 20:47 34.429885 -119.841918 62 15ft 0kts
31-Dec-19 20:48 34.429885 -119.841918 62 15ft 0kts
31-Dec-19 20:49 34.429927 -119.841820 62 15ft 5kts
31-Dec-19 20:50 34.431092 -119.838508 70 15ft 9kts
31-Dec-19 20:51 34.431930 -119.836228 25 15ft 4kts
31-Dec-19 20:52 34.432331 -119.835792 134 15ft 0kts
31-Dec-19 20:53 34.432331 -119.835792 134 15ft 0kts
31-Dec-19 20:54 34.432331 -119.835792 134 15ft 0kts
31-Dec-19 20:55 34.432331 -119.835792 134 15ft 0kts
31-Dec-19 20:56 34.432331 -119.835792 134 15ft 0kts
31-Dec-19 20:57 34.432331 -119.835792 134 15ft 0kts
31-Dec-19 20:58 34.432331 -119.835792 134 15ft 0kts
31-Dec-19 20:59 34.432331 -119.835792 134 15ft 0kts

Navigation Log

Ident Type
Flight plan parsing failed, navigation log unavailable